EXS067J EGBB-EGPH
Flight info
| Callsign | EXS067J |
|---|---|
| Flight time | 0h 50m |
| Altitude | 34000 |
| Route | LUVUM DCT TNT N57 POL UN601 RIBEL DCT INPIP |
| Aircraft | B738/M-SDE2E3FGHIRWXY/LB1 |
Departure
| Time | 2026-05-06 23:07 |
|---|---|
| Airport | Birmingham Airport (EGBB) |
Arrival
| Time | 2026-05-06 23:57 |
|---|---|
| Airport | Edinburgh Airport (EGPH) |
| Time | Latitude | Longitude | Altitude | Speed | Heading |
|---|---|---|---|---|---|
| 2026-05-06 22:42 | 52.45039 | -1.73324 | 323 ft | 0 kts | 327° |
| 2026-05-06 22:59 | 52.45035 | -1.73319 | 320 ft | 4 kts | 326° |
| 2026-05-06 22:59 | 52.45016 | -1.73297 | 319 ft | 4 kts | 317° |
| 2026-05-06 22:59 | 52.45005 | -1.73266 | 320 ft | 4 kts | 257° |
| 2026-05-06 22:59 | 52.45015 | -1.73232 | 319 ft | 1 kts | 236° |
| 2026-05-06 23:00 | 52.45018 | -1.73226 | 319 ft | 0 kts | 236° |
| 2026-05-06 23:03 | 52.45011 | -1.73241 | 320 ft | 4 kts | 236° |
| 2026-05-06 23:03 | 52.44978 | -1.73322 | 323 ft | 12 kts | 236° |
| 2026-05-06 23:03 | 52.44923 | -1.73452 | 322 ft | 15 kts | 236° |
| 2026-05-06 23:03 | 52.44883 | -1.73589 | 323 ft | 12 kts | 238° |
| 2026-05-06 23:04 | 52.44875 | -1.73706 | 320 ft | 11 kts | 310° |
| 2026-05-06 23:04 | 52.44943 | -1.73786 | 323 ft | 14 kts | 326° |
| 2026-05-06 23:04 | 52.45042 | -1.73896 | 323 ft | 21 kts | 325° |
| 2026-05-06 23:04 | 52.45176 | -1.74046 | 323 ft | 25 kts | 326° |
| 2026-05-06 23:05 | 52.45318 | -1.74202 | 321 ft | 23 kts | 326° |
| 2026-05-06 23:05 | 52.45405 | -1.74342 | 322 ft | 16 kts | 296° |
| 2026-05-06 23:05 | 52.45452 | -1.74501 | 323 ft | 15 kts | 296° |
| 2026-05-06 23:05 | 52.45457 | -1.74620 | 323 ft | 10 kts | 240° |
| 2026-05-06 23:06 | 52.45420 | -1.74715 | 322 ft | 10 kts | 240° |
| 2026-05-06 23:06 | 52.45410 | -1.74805 | 322 ft | 6 kts | 228° |
| 2026-05-06 23:06 | 52.45382 | -1.74796 | 324 ft | 0 kts | 144° |
| 2026-05-06 23:06 | 52.45380 | -1.74794 | 324 ft | 5 kts | 144° |
| 2026-05-06 23:07 | 52.45094 | -1.74476 | 327 ft | 96 kts | 146° |
| 2026-05-06 23:07 | 52.44344 | -1.73645 | 542 ft | 149 kts | 144° |
| 2026-05-06 23:07 | 52.43504 | -1.72746 | 1696 ft | 143 kts | 140° |
| 2026-05-06 23:07 | 52.42608 | -1.71761 | 2331 ft | 172 kts | 140° |
| 2026-05-06 23:08 | 52.41525 | -1.70530 | 2883 ft | 196 kts | 137° |
| 2026-05-06 23:08 | 52.40719 | -1.68757 | 3664 ft | 198 kts | 110° |
| 2026-05-06 23:08 | 52.40447 | -1.66484 | 4299 ft | 212 kts | 81° |
| 2026-05-06 23:08 | 52.40758 | -1.64063 | 5131 ft | 221 kts | 73° |
| 2026-05-06 23:09 | 52.41473 | -1.61876 | 5661 ft | 219 kts | 40° |
| 2026-05-06 23:09 | 52.42802 | -1.60704 | 5937 ft | 221 kts | 17° |
| 2026-05-06 23:09 | 52.44294 | -1.60013 | 6191 ft | 223 kts | 13° |
| 2026-05-06 23:09 | 52.45803 | -1.59561 | 7030 ft | 226 kts | 1° |
| 2026-05-06 23:10 | 52.47465 | -1.59646 | 7655 ft | 250 kts | 355° |
| 2026-05-06 23:10 | 52.49273 | -1.59862 | 8408 ft | 266 kts | 355° |
| 2026-05-06 23:10 | 52.51116 | -1.60156 | 9409 ft | 272 kts | 347° |
| 2026-05-06 23:10 | 52.52892 | -1.61226 | 10498 ft | 276 kts | 336° |
| 2026-05-06 23:11 | 52.54717 | -1.62573 | 11103 ft | 298 kts | 335° |
| 2026-05-06 23:11 | 52.56645 | -1.64004 | 11985 ft | 308 kts | 335° |
| 2026-05-06 23:11 | 52.58630 | -1.65456 | 13027 ft | 315 kts | 335° |
| 2026-05-06 23:11 | 52.60645 | -1.66913 | 14110 ft | 320 kts | 335° |
| 2026-05-06 23:12 | 52.62713 | -1.68403 | 15083 ft | 327 kts | 334° |
| 2026-05-06 23:12 | 52.64813 | -1.69915 | 16049 ft | 333 kts | 334° |
| 2026-05-06 23:12 | 52.66954 | -1.71457 | 17082 ft | 339 kts | 334° |
| 2026-05-06 23:12 | 52.69136 | -1.73032 | 18103 ft | 345 kts | 334° |
| 2026-05-06 23:13 | 52.71426 | -1.74315 | 18985 ft | 354 kts | 348° |
| 2026-05-06 23:13 | 52.73911 | -1.74316 | 19919 ft | 361 kts | 4° |
| 2026-05-06 23:13 | 52.76424 | -1.73777 | 20853 ft | 366 kts | 6° |
| 2026-05-06 23:13 | 52.78957 | -1.73151 | 21747 ft | 372 kts | 6° |
| 2026-05-06 23:14 | 52.81536 | -1.72507 | 22607 ft | 377 kts | 6° |
| 2026-05-06 23:14 | 52.84156 | -1.71870 | 23454 ft | 382 kts | 6° |
| 2026-05-06 23:14 | 52.86806 | -1.71245 | 24186 ft | 387 kts | 6° |
| 2026-05-06 23:14 | 52.89482 | -1.70627 | 24918 ft | 390 kts | 6° |
| 2026-05-06 23:15 | 52.92164 | -1.70014 | 25790 ft | 388 kts | 6° |
| 2026-05-06 23:15 | 52.94821 | -1.69409 | 26773 ft | 384 kts | 6° |
| 2026-05-06 23:15 | 52.97458 | -1.68808 | 27738 ft | 381 kts | 6° |
| 2026-05-06 23:15 | 53.00077 | -1.68212 | 28632 ft | 380 kts | 6° |
| 2026-05-06 23:16 | 53.02691 | -1.67642 | 29491 ft | 378 kts | 2° |
| 2026-05-06 23:16 | 53.05307 | -1.67676 | 30332 ft | 375 kts | 352° |
| 2026-05-06 23:16 | 53.07853 | -1.68445 | 31090 ft | 370 kts | 341° |
| 2026-05-06 23:16 | 53.10269 | -1.69857 | 31829 ft | 367 kts | 337° |
| 2026-05-06 23:17 | 53.12638 | -1.71396 | 32514 ft | 366 kts | 337° |
| 2026-05-06 23:17 | 53.15024 | -1.72931 | 33208 ft | 366 kts | 337° |
| 2026-05-06 23:17 | 53.17365 | -1.74408 | 33877 ft | 364 kts | 338° |
| 2026-05-06 23:17 | 53.19751 | -1.75898 | 34065 ft | 371 kts | 338° |
| 2026-05-06 23:18 | 53.22175 | -1.77407 | 34075 ft | 371 kts | 338° |
| 2026-05-06 23:18 | 53.26913 | -1.80353 | 34057 ft | 354 kts | 338° |
| 2026-05-06 23:19 | 53.31489 | -1.83209 | 34072 ft | 349 kts | 338° |
| 2026-05-06 23:19 | 53.36030 | -1.86055 | 34081 ft | 349 kts | 338° |
| 2026-05-06 23:20 | 53.40574 | -1.88909 | 34084 ft | 349 kts | 338° |
| 2026-05-06 23:20 | 53.45123 | -1.91771 | 34086 ft | 349 kts | 338° |
| 2026-05-06 23:21 | 53.49682 | -1.94646 | 34078 ft | 350 kts | 338° |
| 2026-05-06 23:21 | 53.54243 | -1.97528 | 34076 ft | 351 kts | 338° |
| 2026-05-06 23:22 | 53.58808 | -2.00418 | 34078 ft | 350 kts | 338° |
| 2026-05-06 23:22 | 53.63371 | -2.03314 | 34066 ft | 350 kts | 338° |
| 2026-05-06 23:23 | 53.67918 | -2.06206 | 34076 ft | 349 kts | 338° |
| 2026-05-06 23:23 | 53.72462 | -2.09103 | 34077 ft | 349 kts | 338° |
| 2026-05-06 23:24 | 53.76979 | -2.12062 | 34070 ft | 347 kts | 336° |
| 2026-05-06 23:24 | 53.81441 | -2.15129 | 34084 ft | 346 kts | 336° |
| 2026-05-06 23:25 | 53.85907 | -2.18186 | 34086 ft | 346 kts | 336° |
| 2026-05-06 23:25 | 53.90362 | -2.21235 | 34067 ft | 345 kts | 336° |
| 2026-05-06 23:26 | 53.94813 | -2.24288 | 34066 ft | 345 kts | 336° |
| 2026-05-06 23:26 | 53.99265 | -2.27347 | 34075 ft | 345 kts | 336° |
| 2026-05-06 23:27 | 54.03717 | -2.30415 | 34073 ft | 345 kts | 336° |
| 2026-05-06 23:27 | 54.08136 | -2.33466 | 34073 ft | 345 kts | 336° |
| 2026-05-06 23:28 | 54.12591 | -2.36549 | 34071 ft | 346 kts | 336° |
| 2026-05-06 23:28 | 54.17042 | -2.39637 | 34071 ft | 346 kts | 336° |
| 2026-05-06 23:29 | 54.21495 | -2.42733 | 34070 ft | 345 kts | 336° |
| 2026-05-06 23:29 | 54.25943 | -2.45834 | 34064 ft | 345 kts | 336° |
| 2026-05-06 23:30 | 54.30387 | -2.48938 | 34068 ft | 345 kts | 336° |
| 2026-05-06 23:30 | 54.34823 | -2.52045 | 34062 ft | 344 kts | 336° |
| 2026-05-06 23:31 | 54.39248 | -2.55151 | 34073 ft | 343 kts | 336° |
| 2026-05-06 23:31 | 54.43664 | -2.58258 | 34071 ft | 343 kts | 336° |
| 2026-05-06 23:31 | 54.45872 | -2.59814 | 33955 ft | 344 kts | 336° |
| 2026-05-06 23:32 | 54.48089 | -2.61378 | 33674 ft | 341 kts | 336° |
| 2026-05-06 23:32 | 54.50278 | -2.62924 | 33278 ft | 340 kts | 336° |
| 2026-05-06 23:32 | 54.52458 | -2.64465 | 32896 ft | 339 kts | 335° |
| 2026-05-06 23:32 | 54.54642 | -2.66013 | 32491 ft | 339 kts | 335° |
| 2026-05-06 23:33 | 54.56823 | -2.67558 | 32081 ft | 339 kts | 335° |
| 2026-05-06 23:33 | 54.59004 | -2.69108 | 31655 ft | 340 kts | 335° |
| 2026-05-06 23:33 | 54.61191 | -2.70661 | 31250 ft | 340 kts | 335° |
| 2026-05-06 23:33 | 54.63383 | -2.72220 | 30834 ft | 341 kts | 335° |
| 2026-05-06 23:34 | 54.65576 | -2.73783 | 30403 ft | 342 kts | 335° |
| 2026-05-06 23:34 | 54.67778 | -2.75353 | 29946 ft | 343 kts | 334° |
| 2026-05-06 23:34 | 54.69989 | -2.76932 | 29414 ft | 343 kts | 334° |
| 2026-05-06 23:34 | 54.72194 | -2.78509 | 28931 ft | 343 kts | 334° |
| 2026-05-06 23:35 | 54.74405 | -2.80091 | 28452 ft | 344 kts | 334° |
| 2026-05-06 23:35 | 54.76574 | -2.81645 | 28047 ft | 342 kts | 334° |
| 2026-05-06 23:35 | 54.78772 | -2.83222 | 27655 ft | 341 kts | 334° |
| 2026-05-06 23:35 | 54.80969 | -2.84799 | 27234 ft | 343 kts | 334° |
| 2026-05-06 23:36 | 54.83170 | -2.86382 | 26819 ft | 341 kts | 334° |
| 2026-05-06 23:36 | 54.85353 | -2.87952 | 26413 ft | 338 kts | 334° |
| 2026-05-06 23:36 | 54.87517 | -2.89511 | 26011 ft | 336 kts | 334° |
| 2026-05-06 23:36 | 54.89677 | -2.91069 | 25546 ft | 335 kts | 334° |
| 2026-05-06 23:37 | 54.91831 | -2.92626 | 25090 ft | 335 kts | 334° |
| 2026-05-06 23:37 | 54.93980 | -2.94180 | 24634 ft | 334 kts | 334° |
| 2026-05-06 23:37 | 54.96124 | -2.95732 | 24176 ft | 334 kts | 334° |
| 2026-05-06 23:37 | 54.98267 | -2.97286 | 23718 ft | 334 kts | 334° |
| 2026-05-06 23:38 | 55.00411 | -2.98842 | 23192 ft | 333 kts | 334° |
| 2026-05-06 23:38 | 55.02551 | -3.00397 | 22680 ft | 332 kts | 334° |
| 2026-05-06 23:38 | 55.04672 | -3.01939 | 22220 ft | 329 kts | 334° |
| 2026-05-06 23:38 | 55.06784 | -3.03477 | 21748 ft | 328 kts | 334° |
| 2026-05-06 23:39 | 55.08880 | -3.05005 | 21318 ft | 325 kts | 334° |
| 2026-05-06 23:39 | 55.10951 | -3.06517 | 20861 ft | 323 kts | 334° |
| 2026-05-06 23:39 | 55.13022 | -3.08031 | 20406 ft | 322 kts | 334° |
| 2026-05-06 23:39 | 55.15078 | -3.09535 | 19954 ft | 320 kts | 334° |
| 2026-05-06 23:40 | 55.17135 | -3.11042 | 19479 ft | 320 kts | 334° |
| 2026-05-06 23:40 | 55.19192 | -3.12550 | 18992 ft | 320 kts | 334° |
| 2026-05-06 23:40 | 55.21251 | -3.14063 | 18506 ft | 321 kts | 334° |
| 2026-05-06 23:40 | 55.23307 | -3.15574 | 17984 ft | 321 kts | 334° |
| 2026-05-06 23:41 | 55.25363 | -3.17086 | 17441 ft | 321 kts | 334° |
| 2026-05-06 23:41 | 55.27415 | -3.18597 | 16940 ft | 319 kts | 334° |
| 2026-05-06 23:41 | 55.29455 | -3.19976 | 16441 ft | 319 kts | 342° |
| 2026-05-06 23:41 | 55.31674 | -3.20277 | 15980 ft | 322 kts | 0° |
| 2026-05-06 23:42 | 55.33900 | -3.19982 | 15486 ft | 320 kts | 2° |
| 2026-05-06 23:42 | 55.36127 | -3.19598 | 14980 ft | 314 kts | 3° |
| 2026-05-06 23:42 | 55.38252 | -3.19218 | 14510 ft | 308 kts | 3° |
| 2026-05-06 23:42 | 55.40365 | -3.18850 | 14056 ft | 302 kts | 3° |
| 2026-05-06 23:43 | 55.42441 | -3.18500 | 13562 ft | 297 kts | 2° |
| 2026-05-06 23:43 | 55.44481 | -3.18165 | 13070 ft | 292 kts | 2° |
| 2026-05-06 23:43 | 55.46488 | -3.17842 | 12622 ft | 287 kts | 2° |
| 2026-05-06 23:43 | 55.48456 | -3.17528 | 12189 ft | 282 kts | 2° |
| 2026-05-06 23:44 | 55.50400 | -3.17223 | 11749 ft | 280 kts | 2° |
| 2026-05-06 23:44 | 55.51686 | -3.17020 | 11470 ft | 281 kts | 2° |
| 2026-05-06 23:44 | 55.54307 | -3.16607 | 10907 ft | 284 kts | 3° |
| 2026-05-06 23:44 | 55.55608 | -3.16403 | 10620 ft | 285 kts | 3° |
| 2026-05-06 23:45 | 55.57587 | -3.16091 | 10185 ft | 285 kts | 3° |
| 2026-05-06 23:45 | 55.59595 | -3.15775 | 9739 ft | 287 kts | 3° |
| 2026-05-06 23:45 | 55.61589 | -3.15461 | 9250 ft | 288 kts | 3° |
| 2026-05-06 23:45 | 55.63557 | -3.15150 | 8779 ft | 288 kts | 4° |
| 2026-05-06 23:46 | 55.65456 | -3.14847 | 8351 ft | 280 kts | 3° |
| 2026-05-06 23:46 | 55.67367 | -3.14548 | 7953 ft | 271 kts | 4° |
| 2026-05-06 23:46 | 55.69229 | -3.14249 | 7512 ft | 266 kts | 4° |
| 2026-05-06 23:46 | 55.71064 | -3.13956 | 7122 ft | 265 kts | 4° |
| 2026-05-06 23:47 | 55.72850 | -3.13278 | 6894 ft | 259 kts | 17° |
| 2026-05-06 23:47 | 55.74508 | -3.12157 | 6701 ft | 253 kts | 21° |
| 2026-05-06 23:47 | 55.76128 | -3.10981 | 6526 ft | 250 kts | 21° |
| 2026-05-06 23:47 | 55.77735 | -3.09831 | 6338 ft | 248 kts | 21° |
| 2026-05-06 23:48 | 55.79341 | -3.08709 | 6138 ft | 248 kts | 20° |
| 2026-05-06 23:48 | 55.80951 | -3.07601 | 5945 ft | 247 kts | 20° |
| 2026-05-06 23:48 | 55.82544 | -3.06506 | 5774 ft | 245 kts | 20° |
| 2026-05-06 23:48 | 55.84133 | -3.05423 | 5605 ft | 244 kts | 20° |
| 2026-05-06 23:49 | 55.85745 | -3.04473 | 5432 ft | 243 kts | 12° |
| 2026-05-06 23:49 | 55.87403 | -3.03935 | 5249 ft | 244 kts | 8° |
| 2026-05-06 23:49 | 55.89091 | -3.03448 | 5086 ft | 247 kts | 8° |
| 2026-05-06 23:49 | 55.90789 | -3.02937 | 4911 ft | 247 kts | 9° |
| 2026-05-06 23:50 | 55.92470 | -3.02412 | 4737 ft | 243 kts | 9° |
| 2026-05-06 23:50 | 55.95752 | -3.01842 | 4366 ft | 232 kts | 353° |
| 2026-05-06 23:50 | 55.97330 | -3.02222 | 4208 ft | 226 kts | 351° |
| 2026-05-06 23:51 | 55.98866 | -3.02621 | 4058 ft | 219 kts | 351° |
| 2026-05-06 23:51 | 56.00335 | -3.02986 | 3923 ft | 207 kts | 351° |
| 2026-05-06 23:51 | 56.01720 | -3.03438 | 3756 ft | 198 kts | 345° |
| 2026-05-06 23:51 | 56.03028 | -3.04004 | 3610 ft | 190 kts | 345° |
| 2026-05-06 23:52 | 56.04226 | -3.04807 | 3459 ft | 179 kts | 317° |
| 2026-05-06 23:52 | 56.04721 | -3.06640 | 3371 ft | 162 kts | 264° |
| 2026-05-06 23:52 | 56.04368 | -3.08453 | 3290 ft | 151 kts | 244° |
| 2026-05-06 23:52 | 56.03947 | -3.10152 | 3158 ft | 149 kts | 245° |
| 2026-05-06 23:53 | 56.03522 | -3.11833 | 3038 ft | 147 kts | 242° |
| 2026-05-06 23:53 | 56.03047 | -3.13433 | 3015 ft | 145 kts | 238° |
| 2026-05-06 23:53 | 56.02534 | -3.15013 | 2847 ft | 146 kts | 237° |
| 2026-05-06 23:53 | 56.02025 | -3.16537 | 2653 ft | 143 kts | 237° |
| 2026-05-06 23:54 | 56.01516 | -3.18041 | 2466 ft | 140 kts | 236° |
| 2026-05-06 23:54 | 56.01012 | -3.19523 | 2271 ft | 139 kts | 236° |
| 2026-05-06 23:54 | 56.00513 | -3.20990 | 2090 ft | 137 kts | 235° |
| 2026-05-06 23:54 | 56.00036 | -3.22398 | 1894 ft | 129 kts | 235° |
| 2026-05-06 23:55 | 55.99579 | -3.23740 | 1729 ft | 125 kts | 234° |
| 2026-05-06 23:55 | 55.99121 | -3.25087 | 1537 ft | 128 kts | 234° |
| 2026-05-06 23:55 | 55.98659 | -3.26445 | 1379 ft | 128 kts | 236° |
| 2026-05-06 23:55 | 55.98198 | -3.27806 | 1191 ft | 128 kts | 236° |
| 2026-05-06 23:56 | 55.97732 | -3.29188 | 1016 ft | 134 kts | 236° |
| 2026-05-06 23:56 | 55.97244 | -3.30634 | 852 ft | 136 kts | 235° |
| 2026-05-06 23:56 | 55.96748 | -3.32069 | 638 ft | 137 kts | 238° |
| 2026-05-06 23:56 | 55.96258 | -3.33523 | 430 ft | 137 kts | 239° |
| 2026-05-06 23:57 | 55.95763 | -3.34961 | 258 ft | 135 kts | 240° |
| 2026-05-06 23:57 | 55.95279 | -3.36413 | 113 ft | 135 kts | 240° |
| 2026-05-06 23:57 | 55.94864 | -3.37638 | 111 ft | 94 kts | 239° |
| 2026-05-06 23:57 | 55.94610 | -3.38390 | 112 ft | 49 kts | 239° |
| 2026-05-06 23:58 | 55.94504 | -3.38703 | 112 ft | 20 kts | 239° |
| 2026-05-06 23:58 | 55.94453 | -3.38856 | 112 ft | 11 kts | 239° |
| 2026-05-06 23:58 | 55.94421 | -3.38945 | 112 ft | 9 kts | 227° |
| 2026-05-06 23:58 | 55.94363 | -3.38952 | 111 ft | 9 kts | 149° |
| 2026-05-06 23:59 | 55.94310 | -3.38891 | 113 ft | 9 kts | 147° |
| 2026-05-06 23:59 | 55.94286 | -3.38790 | 115 ft | 11 kts | 70° |
| 2026-05-06 23:59 | 55.94344 | -3.38615 | 112 ft | 22 kts | 59° |
| 2026-05-06 23:59 | 55.94432 | -3.38356 | 114 ft | 25 kts | 59° |
| 2026-05-07 00:00 | 55.94522 | -3.38091 | 113 ft | 24 kts | 59° |
| 2026-05-07 00:00 | 55.94605 | -3.37843 | 113 ft | 23 kts | 58° |
| 2026-05-07 00:00 | 55.94685 | -3.37605 | 114 ft | 22 kts | 59° |
| 2026-05-07 00:00 | 55.94764 | -3.37373 | 112 ft | 22 kts | 59° |
| 2026-05-07 00:01 | 55.94844 | -3.37138 | 115 ft | 23 kts | 59° |
| 2026-05-07 00:01 | 55.94936 | -3.36866 | 112 ft | 28 kts | 59° |
| 2026-05-07 00:01 | 55.95043 | -3.36555 | 113 ft | 29 kts | 59° |
| 2026-05-07 00:01 | 55.95127 | -3.36303 | 113 ft | 12 kts | 59° |
| 2026-05-07 00:02 | 55.95125 | -3.36164 | 113 ft | 12 kts | 108° |
| 2026-05-07 00:02 | 55.95099 | -3.36031 | 115 ft | 11 kts | 109° |
| 2026-05-07 00:02 | 55.95072 | -3.35919 | 114 ft | 8 kts | 117° |
| 2026-05-07 00:02 | 55.95044 | -3.35912 | 113 ft | 5 kts | 233° |
| 2026-05-07 00:03 | 55.95031 | -3.35964 | 113 ft | 5 kts | 245° |
| 2026-05-07 00:03 | 55.95020 | -3.36005 | 114 ft | 2 kts | 244° |
| 2026-05-07 00:03 | 55.95017 | -3.36018 | 114 ft | 0 kts | 244° |